createdAt,value
2023-05-05T00:01:08.885Z,101586.31
2023-05-05T00:03:35.741Z,101586.50
2023-05-05T00:06:02.765Z,101583.81
2023-05-05T00:08:29.234Z,101577.78
2023-05-05T00:10:56.434Z,101580.31
2023-05-05T00:13:23.308Z,101571.09
2023-05-05T00:15:51.727Z,101579.69
2023-05-05T00:18:19.365Z,101575.41
2023-05-05T00:20:47.191Z,101574.63
2023-05-05T00:23:14.343Z,101575.25
2023-05-05T00:25:40.998Z,101571.78
2023-05-05T00:28:07.470Z,101574.66
2023-05-05T00:30:34.651Z,101570.66
2023-05-05T00:33:01.497Z,101567.94
2023-05-05T00:35:28.685Z,101566.84
2023-05-05T00:37:55.331Z,101569.41
2023-05-05T00:40:21.984Z,101563.06
2023-05-05T00:42:50.813Z,101561.44
2023-05-05T00:45:19.425Z,101565.59
2023-05-05T00:47:52.432Z,101558.44
2023-05-05T00:50:30.090Z,101559.72
2023-05-05T00:53:00.643Z,101550.50
2023-05-05T00:55:28.481Z,101553.03
2023-05-05T00:57:57.127Z,101557.19
2023-05-05T01:00:23.802Z,101561.34
2023-05-05T01:02:51.878Z,101553.38
2023-05-05T01:05:20.036Z,101551.78
2023-05-05T01:08:03.011Z,101540.66
2023-05-05T01:10:38.179Z,101539.09
2023-05-05T01:13:13.830Z,101538.28
2023-05-05T01:15:51.739Z,101537.66
2023-05-05T01:18:42.030Z,101538.59
2023-05-05T01:21:23.217Z,101535.91
2023-05-05T01:24:06.946Z,101534.63
2023-05-05T01:26:52.465Z,101544.66
2023-05-05T01:29:37.281Z,101542.25
2023-05-05T01:32:14.852Z,101545.78
2023-05-05T01:34:53.634Z,101536.88
2023-05-05T01:37:26.921Z,101533.72
2023-05-05T01:39:59.185Z,101527.63
2023-05-05T01:42:27.752Z,101523.22
2023-05-05T01:44:54.520Z,101521.78
2023-05-05T01:47:22.716Z,101525.13
2023-05-05T01:49:50.269Z,101522.25
2023-05-05T01:52:18.251Z,101526.06
2023-05-05T01:54:46.545Z,101524.94
2023-05-05T01:57:14.788Z,101519.72
2023-05-05T01:59:41.657Z,101519.38
2023-05-05T02:02:11.207Z,101520.69
2023-05-05T02:04:42.435Z,101509.38
2023-05-05T02:07:11.536Z,101524.16
2023-05-05T02:09:39.255Z,101514.47
2023-05-05T02:12:07.112Z,101507.16
2023-05-05T02:14:34.659Z,101503.19
2023-05-05T02:17:01.838Z,101499.22
2023-05-05T02:19:42.924Z,101498.09
2023-05-05T02:22:10.472Z,101496.16
2023-05-05T02:24:37.256Z,101497.47
2023-05-05T02:27:07.236Z,101490.31
2023-05-05T02:29:45.867Z,101498.88
2023-05-05T02:32:20.328Z,101492.03
2023-05-05T02:34:49.813Z,101491.72
2023-05-05T02:37:21.474Z,101491.41
2023-05-05T02:40:00.210Z,101484.25
2023-05-05T02:42:34.948Z,101492.53
2023-05-05T02:45:10.024Z,101495.88
2023-05-05T02:47:39.969Z,101490.63
2023-05-05T02:50:08.942Z,101486.63
2023-05-05T02:52:38.375Z,101495.69
2023-05-05T02:55:06.457Z,101488.88
2023-05-05T02:57:44.580Z,101491.38
2023-05-05T03:00:22.766Z,101483.28
2023-05-05T03:03:05.467Z,101485.00
2023-05-05T03:05:43.831Z,101481.81
2023-05-05T03:08:16.817Z,101474.22
2023-05-05T03:10:56.430Z,101479.28
2023-05-05T03:13:26.315Z,101472.59
2023-05-05T03:15:54.691Z,101467.84
2023-05-05T03:18:25.017Z,101482.13
2023-05-05T03:20:59.031Z,101481.81
2023-05-05T03:23:25.748Z,101478.63
2023-05-05T03:25:57.101Z,101474.19
2023-05-05T03:28:33.645Z,101469.72
2023-05-05T03:31:05.751Z,101473.06
2023-05-05T03:33:34.966Z,101457.66
2023-05-05T03:36:01.447Z,101460.53
2023-05-05T03:38:28.111Z,101453.38
2023-05-05T03:40:55.701Z,101459.09
2023-05-05T03:43:25.635Z,101455.41
2023-05-05T03:45:52.255Z,101453.84
2023-05-05T03:48:19.292Z,101462.56
2023-05-05T03:50:46.213Z,101455.56
2023-05-05T03:53:13.981Z,101464.63
2023-05-05T03:55:41.945Z,101462.38
2023-05-05T03:58:08.351Z,101459.84
2023-05-05T04:00:34.788Z,101463.97
2023-05-05T04:03:01.383Z,101462.69
2023-05-05T04:05:27.915Z,101451.91
2023-05-05T04:07:54.437Z,101460.00
2023-05-05T04:10:21.490Z,101454.75
2023-05-05T04:12:48.200Z,101456.34
2023-05-05T04:15:14.787Z,101451.09
2023-05-05T04:17:41.520Z,101453.97
2023-05-05T04:20:09.293Z,101457.78
2023-05-05T04:22:36.125Z,101455.69
2023-05-05T04:25:02.793Z,101455.84
2023-05-05T04:27:30.319Z,101461.09
2023-05-05T04:29:58.057Z,101459.50
2023-05-05T04:32:24.843Z,101465.22
2023-05-05T04:34:51.762Z,101454.72
2023-05-05T04:37:18.541Z,101457.56
2023-05-05T04:39:45.532Z,101455.53
2023-05-05T04:42:12.129Z,101469.81
2023-05-05T04:44:39.294Z,101464.59
2023-05-05T04:47:05.852Z,101464.59
2023-05-05T04:49:32.336Z,101457.25
2023-05-05T04:51:58.809Z,101460.59
2023-05-05T04:54:25.550Z,101458.53
2023-05-05T04:56:52.037Z,101452.81
2023-05-05T04:59:18.521Z,101458.88
2023-05-05T05:01:45.928Z,101461.72
2023-05-05T05:04:12.798Z,101466.16
2023-05-05T05:06:39.428Z,101478.41
2023-05-05T05:09:05.845Z,101471.88
2023-05-05T05:11:32.310Z,101461.25
2023-05-05T05:13:59.836Z,101453.00
2023-05-05T05:16:26.731Z,101464.28
2023-05-05T05:18:53.293Z,101465.56
2023-05-05T05:21:20.458Z,101467.44
2023-05-05T05:23:47.288Z,101472.22
2023-05-05T05:26:13.769Z,101476.38
2023-05-05T05:28:41.551Z,101475.41
2023-05-05T05:31:08.009Z,101476.22
2023-05-05T05:33:34.712Z,101481.78
2023-05-05T05:36:01.212Z,101484.63
2023-05-05T05:38:27.695Z,101480.19
2023-05-05T05:40:57.697Z,101497.97
2023-05-05T05:43:24.948Z,101499.56
2023-05-05T05:45:51.961Z,101484.00
2023-05-05T05:48:19.962Z,101479.56
2023-05-05T05:50:46.524Z,101485.13
2023-05-05T05:53:13.542Z,101484.34
2023-05-05T05:55:40.063Z,101496.09
2023-05-05T05:58:07.057Z,101485.91
2023-05-05T06:00:33.529Z,101489.44
2023-05-05T06:03:05.767Z,101487.34
2023-05-05T06:05:35.643Z,101476.25
2023-05-05T06:08:02.071Z,101471.63
2023-05-05T06:10:30.247Z,101461.47
2023-05-05T06:13:01.850Z,101464.97
2023-05-05T06:15:30.816Z,101457.53
2023-05-05T06:17:57.321Z,101461.16
2023-05-05T06:20:23.892Z,101463.41
2023-05-05T06:22:50.757Z,101465.00
2023-05-05T06:25:17.454Z,101474.56
2023-05-05T06:27:44.918Z,101477.75
2023-05-05T06:30:11.824Z,101468.22
2023-05-05T06:32:38.286Z,101455.00
2023-05-05T06:35:05.147Z,101441.50
2023-05-05T06:37:31.554Z,101446.59
2023-05-05T06:39:57.963Z,101441.19
2023-05-05T06:42:24.395Z,101449.13
2023-05-05T06:44:52.705Z,101441.81
2023-05-05T06:47:19.212Z,101440.72
2023-05-05T06:49:45.610Z,101443.88
2023-05-05T06:52:12.609Z,101437.38
2023-05-05T06:54:39.020Z,101444.53
2023-05-05T06:57:05.757Z,101448.16
2023-05-05T06:59:32.384Z,101460.56
2023-05-05T07:01:59.245Z,101457.22
2023-05-05T07:04:26.715Z,101459.31
2023-05-05T07:06:55.116Z,101446.09
2023-05-05T07:09:21.854Z,101447.50
2023-05-05T07:11:48.289Z,101446.88
2023-05-05T07:14:14.721Z,101438.59
2023-05-05T07:16:41.417Z,101431.91
2023-05-05T07:19:07.914Z,101430.94
2023-05-05T07:21:34.573Z,101429.19
2023-05-05T07:24:02.985Z,101429.31
2023-05-05T07:26:29.529Z,101428.06
2023-05-05T07:28:57.242Z,101437.59
2023-05-05T07:31:23.710Z,101448.09
2023-05-05T07:33:50.253Z,101449.50
2023-05-05T07:36:17.995Z,101455.06
2023-05-05T07:38:44.552Z,101454.88
2023-05-05T07:41:13.819Z,101462.03
2023-05-05T07:43:44.615Z,101475.09
2023-05-05T07:46:11.824Z,101473.13
2023-05-05T07:48:41.548Z,101474.75
2023-05-05T07:51:08.480Z,101486.84
2023-05-05T07:53:34.948Z,101471.84
2023-05-05T07:56:01.482Z,101476.91
2023-05-05T07:58:27.995Z,101483.78
2023-05-05T08:00:54.453Z,101480.41
2023-05-05T08:03:24.298Z,101472.41
2023-05-05T08:05:55.740Z,101480.84
2023-05-05T08:08:26.884Z,101479.09
2023-05-05T08:10:53.505Z,101483.06
2023-05-05T08:13:20.106Z,101484.47
2023-05-05T08:15:46.868Z,101478.13
2023-05-05T08:18:14.672Z,101494.50
2023-05-05T08:20:41.210Z,101485.41
2023-05-05T08:23:07.651Z,101493.06
2023-05-05T08:25:34.058Z,101485.56
2023-05-05T08:28:00.805Z,101489.50
2023-05-05T08:30:27.512Z,101488.72
2023-05-05T08:32:53.965Z,101485.53
2023-05-05T08:35:20.707Z,101487.38
2023-05-05T08:37:47.129Z,101481.16
2023-05-05T08:40:14.369Z,101481.50
2023-05-05T08:42:41.970Z,101495.16
2023-05-05T08:45:10.179Z,101481.13
2023-05-05T08:47:38.211Z,101488.75
2023-05-05T08:50:05.887Z,101493.03
2023-05-05T08:52:39.892Z,101488.88
2023-05-05T08:55:24.023Z,101483.75
2023-05-05T08:57:58.293Z,101486.44
2023-05-05T09:00:26.906Z,101491.66
2023-05-05T09:02:56.566Z,101483.19
2023-05-05T09:05:23.816Z,101483.00
2023-05-05T09:07:50.603Z,101482.03
2023-05-05T09:10:17.287Z,101477.41
2023-05-05T09:12:44.150Z,101470.16
2023-05-05T09:15:12.537Z,101475.75
2023-05-05T09:17:40.098Z,101470.59
2023-05-05T09:20:07.372Z,101467.56
2023-05-05T09:22:42.175Z,101455.06
2023-05-05T09:25:10.951Z,101455.97
2023-05-05T09:27:48.706Z,101453.41
2023-05-05T09:30:23.707Z,101455.59
2023-05-05T09:32:52.942Z,101457.00
2023-05-05T09:35:20.756Z,101454.69
2023-05-05T09:37:47.247Z,101449.25
2023-05-05T09:40:15.654Z,101446.50
2023-05-05T09:42:42.388Z,101446.00
2023-05-05T09:45:27.685Z,101445.34
2023-05-05T09:47:59.209Z,101455.34
2023-05-05T09:50:30.012Z,101448.13
2023-05-05T09:52:57.454Z,101453.16
2023-05-05T09:55:24.522Z,101444.03
2023-05-05T09:57:51.308Z,101451.47
2023-05-05T10:00:18.104Z,101456.22
2023-05-05T10:02:45.311Z,101456.81
2023-05-05T10:05:14.250Z,101445.91
2023-05-05T10:07:42.806Z,101450.16
2023-05-05T10:10:12.266Z,101447.41
2023-05-05T10:12:39.768Z,101437.75
2023-05-05T10:15:12.004Z,101423.69
2023-05-05T10:18:02.360Z,101429.50
2023-05-05T10:20:33.365Z,101427.25
2023-05-05T10:23:02.431Z,101431.50
2023-05-05T10:25:31.432Z,101426.03
2023-05-05T10:28:01.335Z,101427.41
2023-05-05T10:30:32.637Z,101423.81
2023-05-05T10:35:53.719Z,101433.31
2023-05-05T10:38:20.759Z,101429.44
2023-05-05T10:40:48.793Z,101415.84
2023-05-05T10:43:15.780Z,101411.47
2023-05-05T10:45:43.157Z,101411.25
2023-05-05T10:48:18.644Z,101408.66
2023-05-05T10:50:51.110Z,101404.50
2023-05-05T10:53:28.348Z,101394.84
2023-05-05T10:56:13.267Z,101398.81
2023-05-05T10:58:55.375Z,101395.72
2023-05-05T11:01:34.154Z,101390.53
2023-05-05T11:04:17.138Z,101397.09
2023-05-05T11:07:09.799Z,101395.28
2023-05-05T11:09:55.129Z,101392.72
2023-05-05T11:12:21.889Z,101385.97
2023-05-05T11:14:48.304Z,101389.13
2023-05-05T11:17:56.823Z,101382.06
2023-05-05T11:20:35.872Z,101390.50
2023-05-05T11:23:02.285Z,101377.47
2023-05-05T11:25:34.461Z,101379.31
2023-05-05T11:28:14.489Z,101375.94
2023-05-05T11:30:59.795Z,101365.00
2023-05-05T11:33:37.511Z,101373.41
2023-05-05T11:36:09.157Z,101371.63
2023-05-05T11:39:05.101Z,101374.25
2023-05-05T11:41:34.397Z,101375.13
2023-05-05T11:44:14.526Z,101363.88
2023-05-05T11:46:50.759Z,101361.84
2023-05-05T11:49:27.317Z,101368.19
2023-05-05T11:52:00.439Z,101361.38
2023-05-05T11:54:27.662Z,101363.53
2023-05-05T11:56:55.996Z,101369.34
2023-05-05T11:59:22.673Z,101361.28
2023-05-05T12:01:49.140Z,101358.66
2023-05-05T12:04:16.269Z,101354.25
2023-05-05T12:06:43.392Z,101357.41
2023-05-05T12:09:20.999Z,101359.28
2023-05-05T12:11:55.331Z,101356.16
2023-05-05T12:14:22.544Z,101363.00
2023-05-05T12:16:55.932Z,101363.25
2023-05-05T12:19:23.040Z,101354.88
2023-05-05T12:21:49.522Z,101361.22
2023-05-05T12:24:16.733Z,101349.69
2023-05-05T12:26:43.180Z,101345.53
2023-05-05T12:29:09.645Z,101343.69
2023-05-05T12:31:41.104Z,101341.09
2023-05-05T12:34:10.165Z,101343.44
2023-05-05T12:36:37.501Z,101338.50
2023-05-05T12:39:05.062Z,101337.69
2023-05-05T12:41:32.377Z,101327.50
2023-05-05T12:44:00.836Z,101322.53
2023-05-05T12:46:29.731Z,101331.47
2023-05-05T12:49:05.094Z,101327.78
2023-05-05T12:51:33.070Z,101325.22
2023-05-05T12:54:13.743Z,101328.88
2023-05-05T12:56:42.208Z,101335.44
2023-05-05T12:59:10.390Z,101336.22
2023-05-05T13:01:55.270Z,101333.59
2023-05-05T13:04:27.239Z,101333.34
2023-05-05T13:07:12.105Z,101328.88
2023-05-05T13:09:38.754Z,101335.19
2023-05-05T13:12:07.097Z,101329.44
2023-05-05T13:14:34.478Z,101325.22
2023-05-05T13:17:01.020Z,101328.41
2023-05-05T13:19:27.782Z,101328.13
2023-05-05T13:21:55.541Z,101326.81
2023-05-05T13:24:31.596Z,101322.91
2023-05-05T13:27:03.192Z,101314.25
2023-05-05T13:29:31.618Z,101319.50
2023-05-05T13:31:58.536Z,101314.81
2023-05-05T13:34:24.992Z,101303.28
2023-05-05T13:36:51.916Z,101299.09
2023-05-05T13:39:18.682Z,101298.06
2023-05-05T13:41:45.402Z,101298.84
2023-05-05T13:44:13.574Z,101290.47
2023-05-05T13:46:41.484Z,101289.97
2023-05-05T13:49:08.230Z,101283.69
2023-05-05T13:51:34.845Z,101293.09
2023-05-05T13:54:01.815Z,101281.84
2023-05-05T13:56:28.534Z,101288.41
2023-05-05T13:58:55.085Z,101277.94
2023-05-05T14:01:21.560Z,101276.63
2023-05-05T14:03:48.083Z,101265.09
2023-05-05T14:06:17.872Z,101268.50
2023-05-05T14:08:44.371Z,101264.06
2023-05-05T14:11:10.814Z,101265.63
2023-05-05T14:13:37.267Z,101270.34
2023-05-05T14:16:03.895Z,101266.94
2023-05-05T14:18:30.375Z,101262.00
2023-05-05T14:20:57.225Z,101254.91
2023-05-05T14:23:23.736Z,101251.22
2023-05-05T14:25:50.144Z,101248.88
2023-05-05T14:28:16.544Z,101253.84
2023-05-05T14:30:43.301Z,101246.78
2023-05-05T14:33:10.124Z,101249.16
2023-05-05T14:35:36.517Z,101245.75
2023-05-05T14:38:02.940Z,101253.09
2023-05-05T14:40:30.225Z,101255.97
2023-05-05T14:42:57.681Z,101260.44
2023-05-05T14:45:24.152Z,101250.50
2023-05-05T14:47:50.640Z,101240.25
2023-05-05T14:50:17.130Z,101253.63
2023-05-05T14:52:44.424Z,101249.94
2023-05-05T14:55:11.262Z,101252.31
2023-05-05T14:57:38.623Z,101238.13
2023-05-05T15:00:06.843Z,101242.09
2023-05-05T15:02:33.774Z,101243.66
2023-05-05T15:05:00.317Z,101252.31
2023-05-05T15:07:28.508Z,101240.78
2023-05-05T15:09:58.554Z,101243.66
2023-05-05T15:12:25.949Z,101236.06
2023-05-05T15:14:52.592Z,101236.06
2023-05-05T15:17:19.270Z,101236.59
2023-05-05T15:19:46.105Z,101234.47
2023-05-05T15:22:12.514Z,101234.47
2023-05-05T15:24:39.010Z,101217.69
2023-05-05T15:27:05.516Z,101224.25
2023-05-05T15:29:31.962Z,101224.25
2023-05-05T15:31:58.555Z,101211.13
2023-05-05T15:34:25.117Z,101215.31
2023-05-05T15:36:51.550Z,101203.78
2023-05-05T15:39:18.017Z,101200.91
2023-05-05T15:41:44.560Z,101185.41
2023-05-05T15:44:13.877Z,101194.88
2023-05-05T15:46:41.118Z,101179.63
2023-05-05T15:49:07.654Z,101195.13
2023-05-05T15:51:34.080Z,101198.00
2023-05-05T15:54:00.545Z,101178.34
2023-05-05T15:56:27.526Z,101186.47
2023-05-05T15:58:54.279Z,101195.66
2023-05-05T16:01:21.052Z,101186.47
2023-05-05T16:03:47.540Z,101180.72
2023-05-05T16:06:14.064Z,101173.34
2023-05-05T16:08:41.115Z,101180.72
2023-05-05T16:11:07.563Z,101166.03
2023-05-05T16:13:34.063Z,101175.72
2023-05-05T16:16:00.890Z,101173.34
2023-05-05T16:18:27.315Z,101176.22
2023-05-05T16:20:53.775Z,101177.31
2023-05-05T16:23:20.182Z,101181.47
2023-05-05T16:25:46.602Z,101188.84
2023-05-05T16:28:13.042Z,101180.19
2023-05-05T16:30:39.855Z,101174.94
2023-05-05T16:33:06.816Z,101171.53
2023-05-05T16:35:33.516Z,101177.31
2023-05-05T16:38:00.137Z,101176.53
2023-05-05T16:40:26.721Z,101181.47
2023-05-05T16:42:53.181Z,101192.25
2023-05-05T16:45:19.584Z,101193.03
2023-05-05T16:47:46.043Z,101196.44
2023-05-05T16:50:12.581Z,101194.88
2023-05-05T16:52:39.426Z,101185.94
2023-05-05T16:55:06.280Z,101193.28
2023-05-05T16:57:32.929Z,101203.22
2023-05-05T16:59:59.529Z,101207.44
2023-05-05T17:02:26.063Z,101203.50
2023-05-05T17:04:53.096Z,101213.22
2023-05-05T17:07:19.682Z,101213.72
2023-05-05T17:09:46.072Z,101215.84
2023-05-05T17:12:12.514Z,101216.06
2023-05-05T17:14:39.583Z,101225.53
2023-05-05T17:17:06.129Z,101213.69
2023-05-05T17:19:32.601Z,101215.28
2023-05-05T17:21:59.145Z,101212.91
2023-05-05T17:24:25.668Z,101217.63
2023-05-05T17:26:52.079Z,101209.25
2023-05-05T17:29:22.998Z,101207.41
2023-05-05T17:31:50.580Z,101220.25
2023-05-05T17:34:17.148Z,101213.19
2023-05-05T17:36:43.559Z,101214.47
2023-05-05T17:39:11.345Z,101215.78
2023-05-05T17:41:37.748Z,101217.09
2023-05-05T17:44:04.329Z,101213.44
2023-05-05T17:46:30.736Z,101209.47
2023-05-05T17:48:57.290Z,101209.47
2023-05-05T17:51:23.803Z,101212.09
2023-05-05T17:53:50.224Z,101209.22
2023-05-05T17:56:17.050Z,101219.16
2023-05-05T17:58:43.602Z,101218.91
2023-05-05T18:01:13.544Z,101223.09
2023-05-05T18:03:40.974Z,101223.09
2023-05-05T18:06:07.692Z,101226.75
2023-05-05T18:08:34.112Z,101230.41
2023-05-05T18:11:01.819Z,101227.78
2023-05-05T18:13:28.249Z,101235.13
2023-05-05T18:15:54.700Z,101240.59
2023-05-05T18:18:21.289Z,101247.69
2023-05-05T18:20:47.860Z,101256.84
2023-05-05T18:23:14.334Z,101264.41
2023-05-05T18:25:41.512Z,101263.66
2023-05-05T18:28:08.364Z,101274.09
2023-05-05T18:30:35.878Z,101272.53
2023-05-05T18:33:02.408Z,101275.09
2023-05-05T18:35:29.181Z,101282.19
2023-05-05T18:37:55.778Z,101297.63
2023-05-05T18:40:22.742Z,101307.06
2023-05-05T18:42:49.612Z,101301.78
2023-05-05T18:45:16.107Z,101310.19
2023-05-05T18:47:42.597Z,101312.78
2023-05-05T18:50:09.965Z,101321.44
2023-05-05T18:52:36.416Z,101322.16
2023-05-05T18:55:03.027Z,101325.34
2023-05-05T18:57:29.710Z,101324.28
2023-05-05T18:59:56.351Z,101323.50
2023-05-05T19:02:22.868Z,101336.81
2023-05-05T19:04:49.385Z,101323.94
2023-05-05T19:07:27.491Z,101337.06
2023-05-05T19:09:58.085Z,101334.13
2023-05-05T19:12:24.587Z,101339.88
2023-05-05T19:14:51.134Z,101346.44
2023-05-05T19:17:17.547Z,101339.34
2023-05-05T19:19:43.995Z,101340.13
2023-05-05T19:22:10.436Z,101332.22
2023-05-05T19:24:36.877Z,101330.94
2023-05-05T19:27:03.835Z,101334.84
2023-05-05T19:29:31.977Z,101328.50
2023-05-05T19:31:58.508Z,101340.03
2023-05-05T19:34:24.964Z,101344.22
2023-05-05T19:36:51.409Z,101343.16
2023-05-05T19:39:17.834Z,101343.66
2023-05-05T19:41:44.730Z,101346.25
2023-05-05T19:44:11.178Z,101341.00
2023-05-05T19:46:37.746Z,101343.59
2023-05-05T19:49:04.330Z,101333.63
2023-05-05T19:51:31.771Z,101345.16
2023-05-05T19:53:59.421Z,101344.31
2023-05-05T19:56:26.195Z,101334.34
2023-05-05T19:58:54.594Z,101341.41
2023-05-05T20:01:21.209Z,101334.28
2023-05-05T20:03:47.807Z,101334.28
2023-05-05T20:06:14.376Z,101327.44
2023-05-05T20:08:40.832Z,101328.47
2023-05-05T20:11:07.278Z,101334.47
2023-05-05T20:13:34.350Z,101336.78
2023-05-05T20:16:00.924Z,101332.03
2023-05-05T20:18:27.442Z,101338.81
2023-05-05T20:20:53.895Z,101343.50
2023-05-05T20:23:20.320Z,101337.47
2023-05-05T20:25:46.757Z,101334.00
2023-05-05T20:28:13.194Z,101339.75
2023-05-05T20:30:39.628Z,101330.06
2023-05-05T20:33:06.078Z,101330.78
2023-05-05T20:35:32.524Z,101327.63
2023-05-05T20:37:58.957Z,101324.66
2023-05-05T20:40:25.562Z,101315.72
2023-05-05T20:42:51.963Z,101312.28
2023-05-05T20:45:18.525Z,101310.69
2023-05-05T20:47:44.976Z,101312.00
2023-05-05T20:50:11.917Z,101303.31
2023-05-05T20:52:38.492Z,101314.03
2023-05-05T20:55:05.334Z,101301.94
2023-05-05T20:57:31.758Z,101297.19
2023-05-05T20:59:58.264Z,101310.00
2023-05-05T21:02:24.922Z,101309.69
2023-05-05T21:04:54.600Z,101304.69
2023-05-05T21:07:21.044Z,101300.25
2023-05-05T21:09:47.680Z,101305.41
2023-05-05T21:12:14.101Z,101304.81
2023-05-05T21:14:45.123Z,101297.50
2023-05-05T21:17:11.535Z,101300.88
2023-05-05T21:19:37.975Z,101299.50
2023-05-05T21:22:07.460Z,101299.00
2023-05-05T21:24:33.901Z,101293.47
2023-05-05T21:27:00.425Z,101285.88
2023-05-05T21:29:26.868Z,101292.09
2023-05-05T21:31:53.390Z,101277.47
2023-05-05T21:34:20.306Z,101274.78
2023-05-05T21:36:46.702Z,101278.97
2023-05-05T21:39:13.165Z,101275.00
2023-05-05T21:41:39.666Z,101280.97
2023-05-05T21:44:06.088Z,101271.25
2023-05-05T21:46:32.547Z,101278.81
2023-05-05T21:48:59.016Z,101282.97
2023-05-05T21:51:25.628Z,101277.66
2023-05-05T21:53:52.066Z,101268.72
2023-05-05T21:56:18.523Z,101272.09
2023-05-05T21:58:44.985Z,101272.03
2023-05-05T22:01:11.956Z,101273.31
2023-05-05T22:03:38.616Z,101274.31
2023-05-05T22:06:05.419Z,101286.81
2023-05-05T22:08:31.850Z,101289.69
2023-05-05T22:10:58.279Z,101287.03
2023-05-05T22:13:24.763Z,101291.97
2023-05-05T22:15:51.308Z,101294.53
2023-05-05T22:18:17.817Z,101284.38
2023-05-05T22:20:44.527Z,101285.38
2023-05-05T22:23:11.106Z,101296.56
2023-05-05T22:25:37.570Z,101284.47
2023-05-05T22:28:04.236Z,101290.41
2023-05-05T22:30:30.748Z,101290.91
2023-05-05T22:32:57.400Z,101289.03
2023-05-05T22:35:24.467Z,101284.88
2023-05-05T22:37:50.939Z,101285.88
2023-05-05T22:40:17.523Z,101278.25
2023-05-05T22:42:43.997Z,101282.41
2023-05-05T22:45:10.981Z,101271.41
2023-05-05T22:47:37.787Z,101284.69
2023-05-05T22:50:04.673Z,101274.97
2023-05-05T22:52:31.461Z,101275.19
2023-05-05T22:54:57.885Z,101280.94
2023-05-05T22:57:24.422Z,101283.50
2023-05-05T22:59:51.173Z,101264.09
2023-05-05T23:02:17.702Z,101261.72
2023-05-05T23:04:44.940Z,101272.44
2023-05-05T23:07:12.512Z,101264.03
2023-05-05T23:09:39.065Z,101257.19
2023-05-05T23:12:05.666Z,101256.63
2023-05-05T23:14:32.167Z,101264.91
2023-05-05T23:16:58.761Z,101262.03
2023-05-05T23:19:25.361Z,101265.72
2023-05-05T23:21:53.664Z,101265.13
2023-05-05T23:24:21.955Z,101261.97
2023-05-05T23:26:48.818Z,101265.59
2023-05-05T23:29:15.238Z,101261.19
2023-05-05T23:31:41.894Z,101262.94
2023-05-05T23:34:08.444Z,101272.06
2023-05-05T23:36:34.970Z,101270.44
2023-05-05T23:39:01.490Z,101269.38
2023-05-05T23:41:27.930Z,101259.69
2023-05-05T23:43:54.323Z,101259.38
2023-05-05T23:46:20.780Z,101261.97
2023-05-05T23:48:47.231Z,101266.13
2023-05-05T23:51:13.661Z,101265.81
2023-05-05T23:53:40.091Z,101267.09
2023-05-05T23:56:07.239Z,101262.34
2023-05-05T23:58:33.830Z,101263.63
